Time;durP1;ratioP1;P1;durP2;ratioP2;P2;SDS_P1;SDS_P2;PMS_P1;PMS_P2;Temp;Humidity;BMP_temperature;BMP_pressure;BME280_temperature;BME280_humidity;BME280_pressure;Samples;Min_cycle;Max_cycle;Signal;HPM_P1;HPM_P2
2022/10/25 00:00:39;;;;;;;15.30;7.95;;;;;;;9.70;85.77;95758.28;1681848;84;21114;-61
2022/10/25 00:03:10;;;;;;;11.53;8.77;;;;;;;9.73;86.11;95756.06;1711552;83;21137;-61
2022/10/25 00:05:39;;;;;;;16.95;10.05;;;;;;;9.80;85.63;95753.74;1689594;83;21031;-61
2022/10/25 00:08:07;;;;;;;15.55;9.00;;;;;;;9.80;84.97;95761.64;1686903;84;21043;-62
2022/10/25 00:10:34;;;;;;;17.00;9.43;;;;;;;9.81;84.59;95758.59;1707689;83;21007;-61
2022/10/25 00:13:01;;;;;;;16.60;9.28;;;;;;;9.73;84.83;95760.01;1706951;83;21071;-62
2022/10/25 00:15:28;;;;;;;20.72;9.85;;;;;;;9.71;85.11;95757.83;1702928;83;21055;-62
2022/10/25 00:17:54;;;;;;;15.55;10.60;;;;;;;9.64;85.15;95754.39;1703543;83;22409;-62
2022/10/25 00:20:21;;;;;;;13.93;10.30;;;;;;;9.69;85.40;95755.66;1691236;84;21038;-61
2022/10/25 00:22:48;;;;;;;21.20;10.78;;;;;;;9.65;85.05;95757.47;1703934;83;21185;-61
2022/10/25 00:25:15;;;;;;;25.12;13.25;;;;;;;9.65;85.55;95755.25;1689227;83;21196;-62
2022/10/25 00:27:42;;;;;;;27.32;14.40;;;;;;;9.66;85.46;95753.94;1683199;84;21003;-61
2022/10/25 00:30:11;;;;;;;14.63;8.03;;;;;;;9.68;85.33;95759.20;1684886;83;21078;-62
2022/10/25 00:32:37;;;;;;;24.00;12.03;;;;;;;9.65;85.67;95753.94;1699950;83;21046;-61
2022/10/25 00:35:06;;;;;;;20.23;9.90;;;;;;;9.75;86.16;95765.69;1684545;83;21051;-61
2022/10/25 00:37:32;;;;;;;26.52;12.88;;;;;;;9.75;85.29;95750.30;1681972;83;21086;-61
2022/10/25 00:39:59;;;;;;;28.62;11.50;;;;;;;9.73;85.43;95746.84;1712230;83;21030;-61
2022/10/25 00:42:26;;;;;;;19.42;11.57;;;;;;;9.65;85.39;95741.66;1692270;84;21026;-61
2022/10/25 00:44:57;;;;;;;22.93;12.17;;;;;;;9.57;84.79;95737.36;1694586;84;21043;-62
2022/10/25 00:47:45;;;;;;;16.67;5.80;;;;;;;9.57;85.49;95742.63;1683545;84;21608;-62
2022/10/25 00:50:52;;;;;;;13.03;7.47;;;;;;;9.58;85.98;95737.36;1682690;84;21043;-61
2022/10/25 00:53:31;;;;;;;8.78;5.35;;;;;;;9.61;85.92;95735.13;1683111;84;21526;-62
2022/10/25 00:56:12;;;;;;;14.90;7.57;;;;;;;9.58;86.10;95732.09;1684745;85;21066;-61
2022/10/25 00:58:40;;;;;;;12.03;6.47;;;;;;;9.56;86.47;95727.28;1684925;84;21067;-61
2022/10/25 01:01:09;;;;;;;15.20;6.72;;;;;;;9.57;86.17;95722.42;1681980;84;21041;-62
2022/10/25 01:03:39;;;;;;;15.90;9.25;;;;;;;9.49;85.72;95719.02;1684317;84;21019;-61
2022/10/25 01:06:15;;;;;;;19.33;10.47;;;;;;;9.43;85.92;95717.34;1685540;84;21775;-61
2022/10/25 01:08:43;;;;;;;21.55;9.78;;;;;;;9.38;85.82;95715.66;1686086;84;21075;-61
2022/10/25 01:11:10;;;;;;;23.57;8.38;;;;;;;9.34;85.60;95715.27;1684625;83;21042;-61
2022/10/25 01:13:37;;;;;;;15.90;7.95;;;;;;;9.39;86.41;95712.99;1682962;84;21066;-61
2022/10/25 01:16:18;;;;;;;13.68;6.00;;;;;;;9.40;85.42;95709.91;1683920;84;21015;-61
2022/10/25 01:19:11;;;;;;;20.10;7.78;;;;;;;9.35;85.76;95709.98;1687733;84;21019;-61
2022/10/25 01:21:52;;;;;;;20.32;7.87;;;;;;;9.31;85.52;95713.08;1686115;84;21055;-61
2022/10/25 01:24:59;;;;;;;14.43;7.20;;;;;;;9.31;85.48;95708.27;1682116;84;21015;-61
2022/10/25 01:27:50;;;;;;;18.10;8.30;;;;;;;9.30;85.79;95702.59;1681851;84;21592;-61
2022/10/25 01:30:21;;;;;;;15.60;7.87;;;;;;;9.26;85.51;95702.19;1709477;83;21656;-62
2022/10/25 01:33:20;;;;;;;18.23;8.83;;;;;;;9.26;85.70;95699.55;1700145;84;21010;-62
2022/10/25 01:36:17;;;;;;;16.20;8.50;;;;;;;9.22;85.33;95695.20;1651942;86;21031;-61
2022/10/25 01:39:04;;;;;;;14.47;8.80;;;;;;;9.05;84.70;95694.97;1656627;86;21047;-61
2022/10/25 01:42:06;;;;;;;14.70;7.67;;;;;;;8.85;85.41;95692.99;1687334;83;21003;-61
2022/10/25 01:44:56;;;;;;;11.13;7.03;;;;;;;8.77;85.16;95689.13;1702303;83;21157;-61
2022/10/25 01:47:37;;;;;;;16.57;6.87;;;;;;;8.72;86.25;95695.30;1716207;83;21258;-61
2022/10/25 01:50:15;;;;;;;19.90;10.40;;;;;;;8.66;86.45;95689.66;1686572;84;21063;-61
2022/10/25 01:52:42;;;;;;;22.17;11.20;;;;;;;8.60;86.50;95681.39;1706317;83;21101;-61
2022/10/25 01:55:12;;;;;;;15.83;8.10;;;;;;;8.58;86.29;95683.61;1704863;83;21086;-61
2022/10/25 01:58:00;;;;;;;15.70;9.47;;;;;;;8.59;86.30;95686.23;1690619;83;21046;-61
2022/10/25 02:00:31;;;;;;;19.00;9.00;;;;;;;8.54;85.97;95691.98;1704459;84;21402;-61
2022/10/25 02:03:18;;;;;;;21.50;10.70;;;;;;;8.48;86.37;95693.78;1695425;84;21055;-61
2022/10/25 02:06:22;;;;;;;27.17;13.33;;;;;;;8.50;86.97;95689.39;1667638;84;21049;-61
2022/10/25 02:09:09;;;;;;;16.62;9.55;;;;;;;8.46;86.66;95692.47;1707008;83;21568;-61
2022/10/25 02:11:36;;;;;;;20.60;8.57;;;;;;;8.42;86.81;95692.95;1687832;84;21065;-61
2022/10/25 02:14:35;;;;;;;12.47;6.40;;;;;;;8.40;86.95;95686.83;1684176;85;21539;-62
2022/10/25 02:17:15;;;;;;;15.33;7.30;;;;;;;8.37;86.97;95680.26;1681160;85;21082;-61
2022/10/25 02:19:49;;;;;;;19.93;9.90;;;;;;;8.39;87.27;95679.84;1680165;85;21012;-61
2022/10/25 02:22:21;;;;;;;20.17;10.53;;;;;;;8.42;87.77;95685.06;1679731;85;21673;-61
2022/10/25 02:24:50;;;;;;;24.60;12.20;;;;;;;8.45;87.10;95687.66;1683112;85;21563;-62
2022/10/25 02:27:22;;;;;;;38.40;20.37;;;;;;;8.43;87.00;95680.67;1681250;84;21054;-61
2022/10/25 02:29:49;;;;;;;18.30;7.93;;;;;;;8.42;86.75;95681.57;1679038;85;21011;-61
2022/10/25 02:32:16;;;;;;;25.00;13.27;;;;;;;8.43;87.06;95683.30;1682647;85;21078;-61
2022/10/25 02:34:47;;;;;;;19.87;10.77;;;;;;;8.44;86.83;95677.14;1682202;84;21075;-61
2022/10/25 02:37:14;;;;;;;8.23;5.20;;;;;;;8.43;86.17;95680.22;1683656;84;21133;-61
2022/10/25 02:39:41;;;;;;;25.53;11.33;;;;;;;8.40;86.34;95682.02;1699909;83;21018;-61
2022/10/25 02:42:08;;;;;;;19.63;11.03;;;;;;;8.43;87.09;95673.65;1688295;84;21027;-61
2022/10/25 02:44:34;;;;;;;14.50;8.77;;;;;;;8.48;86.75;95680.64;1683150;84;21054;-61
2022/10/25 02:47:01;;;;;;;15.70;8.30;;;;;;;8.42;86.83;95682.44;1685132;84;21093;-61
2022/10/25 02:49:28;;;;;;;20.60;11.77;;;;;;;8.41;87.00;95679.36;1664060;84;21082;-61
2022/10/25 02:51:55;;;;;;;12.73;7.83;;;;;;;8.47;86.67;95686.34;1683952;84;21553;-61
2022/10/25 02:54:22;;;;;;;21.13;11.10;;;;;;;8.45;86.53;95683.72;1682091;84;21102;-61
2022/10/25 02:56:51;;;;;;;14.33;5.43;;;;;;;8.48;86.55;95682.81;1683162;85;21111;-61
2022/10/25 02:59:18;;;;;;;18.67;7.33;;;;;;;8.50;86.52;95678.42;1701356;83;21034;-61
2022/10/25 03:01:45;;;;;;;13.00;4.87;;;;;;;8.59;86.87;95680.08;1714289;83;21540;-61
2022/10/25 03:04:12;;;;;;;20.30;12.77;;;;;;;8.70;86.95;95676.05;1692456;83;21094;-61
2022/10/25 03:06:39;;;;;;;23.03;15.53;;;;;;;8.65;85.73;95673.02;1703421;84;21585;-61
2022/10/25 03:09:05;;;;;;;22.20;13.13;;;;;;;8.56;85.73;95680.98;1687091;84;21101;-61
2022/10/25 03:11:32;;;;;;;18.33;11.30;;;;;;;8.57;86.25;95676.17;1711705;83;21555;-62
2022/10/25 03:13:58;;;;;;;19.27;11.00;;;;;;;8.61;86.58;95675.23;1706539;84;20996;-61
2022/10/25 03:16:25;;;;;;;15.67;10.53;;;;;;;8.57;86.43;95676.17;1707055;83;21023;-61
2022/10/25 03:18:51;;;;;;;15.83;11.17;;;;;;;8.63;86.89;95675.23;1703767;84;20999;-61
2022/10/25 03:21:18;;;;;;;20.37;13.10;;;;;;;8.74;87.27;95676.43;1683898;84;21104;-61
2022/10/25 03:23:45;;;;;;;27.33;10.30;;;;;;;8.86;87.17;95678.48;1685060;84;20994;-61
2022/10/25 03:26:12;;;;;;;14.53;8.53;;;;;;;8.98;87.00;95675.31;1666657;85;21100;-61
2022/10/25 03:28:38;;;;;;;13.43;9.20;;;;;;;9.06;86.37;95674.33;1704162;84;21071;-62
2022/10/25 03:31:11;;;;;;;13.83;8.30;;;;;;;9.05;86.32;95672.59;1700356;84;21026;-61
2022/10/25 03:33:38;;;;;;;18.62;9.73;;;;;;;9.13;86.38;95670.33;1700455;84;21026;-62
2022/10/25 03:36:06;;;;;;;15.77;10.57;;;;;;;9.08;86.53;95663.34;1704210;83;21054;-62
2022/10/25 03:38:33;;;;;;;20.17;10.97;;;;;;;9.05;86.87;95670.41;1694962;83;21027;-62
2022/10/25 03:40:59;;;;;;;20.17;12.40;;;;;;;9.06;86.82;95669.51;1700714;83;21034;-62
2022/10/25 03:43:26;;;;;;;17.70;6.50;;;;;;;9.16;87.04;95665.02;1698044;83;21057;-61
2022/10/25 03:45:53;;;;;;;18.83;9.50;;;;;;;9.28;86.82;95660.92;1691552;84;21549;-61
2022/10/25 03:48:20;;;;;;;21.90;13.27;;;;;;;9.27;87.33;95660.05;1704546;84;21037;-61
2022/10/25 03:50:46;;;;;;;28.50;15.27;;;;;;;9.27;86.70;95649.52;1706153;83;21004;-61
2022/10/25 03:53:14;;;;;;;26.50;15.77;;;;;;;9.28;86.47;95645.12;1697832;83;21034;-61
2022/10/25 03:55:41;;;;;;;33.83;19.30;;;;;;;9.28;86.66;95638.54;1695001;83;21572;-61
2022/10/25 03:58:07;;;;;;;29.63;17.98;;;;;;;9.30;86.80;95636.31;1683120;85;21098;-61
2022/10/25 04:00:34;;;;;;;35.30;20.32;;;;;;;9.43;87.39;95638.79;1682769;84;21015;-62
2022/10/25 04:03:02;;;;;;;29.20;18.00;;;;;;;9.52;87.16;95628.11;1685053;84;21051;-61
2022/10/25 04:05:29;;;;;;;29.42;15.28;;;;;;;9.59;87.11;95627.58;1688162;84;21066;-62
2022/10/25 04:07:57;;;;;;;22.30;14.70;;;;;;;9.71;87.07;95620.38;1714301;83;21549;-61
2022/10/25 04:10:25;;;;;;;16.02;5.80;;;;;;;9.75;86.44;95624.72;1680565;84;21557;-61
2022/10/25 04:12:52;;;;;;;15.83;8.23;;;;;;;9.80;86.39;95631.66;1680530;84;21212;-62
2022/10/25 04:15:19;;;;;;;35.68;18.55;;;;;;;9.87;86.73;95621.00;1679137;85;21102;-61
2022/10/25 04:17:49;;;;;;;42.05;27.98;;;;;;;9.89;86.64;95619.67;1682069;84;21012;-62
2022/10/25 04:20:15;;;;;;;42.23;27.62;;;;;;;9.92;86.36;95619.16;1684123;85;21122;-62
2022/10/25 04:22:42;;;;;;;45.30;25.68;;;;;;;9.91;86.01;95613.48;1682060;85;21545;-61
2022/10/25 04:25:09;;;;;;;31.97;19.67;;;;;;;9.89;85.91;95607.81;1679451;85;21055;-62
2022/10/25 04:27:36;;;;;;;24.07;15.15;;;;;;;9.89;85.50;95595.50;1664481;85;21035;-62
2022/10/25 04:30:03;;;;;;;23.98;14.15;;;;;;;9.86;85.82;95595.55;1677704;85;21032;-62
2022/10/25 04:32:30;;;;;;;27.50;15.93;;;;;;;9.90;86.00;95587.14;1678003;85;21040;-61
2022/10/25 04:34:56;;;;;;;25.97;15.65;;;;;;;9.92;85.95;95590.17;1678481;85;21063;-61
2022/10/25 04:37:23;;;;;;;28.32;12.68;;;;;;;9.95;85.96;95587.52;1683948;84;21067;-61
2022/10/25 04:39:50;;;;;;;20.77;13.98;;;;;;;9.92;86.10;95584.03;1678932;85;21517;-61
2022/10/25 04:42:18;;;;;;;28.12;17.82;;;;;;;10.00;86.86;95589.18;1682235;84;21023;-61
2022/10/25 04:44:44;;;;;;;26.50;18.35;;;;;;;10.04;86.70;95590.88;1680601;85;21000;-61
2022/10/25 04:47:11;;;;;;;22.82;15.50;;;;;;;10.09;86.45;95598.27;1680861;85;21047;-61
2022/10/25 04:49:38;;;;;;;19.02;12.53;;;;;;;10.14;86.35;95593.78;1680393;84;21173;-61
2022/10/25 04:52:05;;;;;;;19.57;12.70;;;;;;;10.16;86.30;95586.73;1715364;83;21525;-61
2022/10/25 04:54:31;;;;;;;18.50;12.25;;;;;;;10.15;85.95;95587.61;1706526;84;21197;-61
2022/10/25 04:56:58;;;;;;;23.45;13.43;;;;;;;10.14;85.76;95596.42;1688874;83;21066;-61
2022/10/25 04:59:24;;;;;;;26.82;13.13;;;;;;;10.13;85.86;95594.24;1698685;83;21053;-62
2022/10/25 05:01:51;;;;;;;22.25;13.08;;;;;;;10.10;85.59;95591.63;1699657;84;21027;-61
2022/10/25 05:04:17;;;;;;;26.73;16.55;;;;;;;10.04;86.20;95594.84;1687363;83;21081;-62
2022/10/25 05:06:44;;;;;;;47.50;28.83;;;;;;;10.01;86.06;95600.17;1703809;84;21513;-61
2022/10/25 05:09:11;;;;;;;40.00;25.50;;;;;;;10.07;86.70;95598.73;1705368;83;21000;-62
2022/10/25 05:11:37;;;;;;;37.30;23.87;;;;;;;10.13;86.41;95586.75;1693885;83;21062;-61
2022/10/25 05:14:04;;;;;;;31.02;16.85;;;;;;;10.19;86.61;95591.94;1705321;83;21004;-62
2022/10/25 05:16:33;;;;;;;29.05;18.02;;;;;;;10.23;86.63;95592.75;1682472;84;21561;-61
2022/10/25 05:19:00;;;;;;;29.42;18.67;;;;;;;10.24;86.56;95598.46;1680402;84;21620;-61
2022/10/25 05:21:29;;;;;;;30.68;15.83;;;;;;;10.28;86.44;95587.87;1681228;85;21059;-61
2022/10/25 05:23:57;;;;;;;34.63;19.85;;;;;;;10.27;87.00;95584.76;1684023;84;21137;-61
2022/10/25 05:26:23;;;;;;;49.05;25.80;;;;;;;10.25;86.39;95583.91;1680415;85;21549;-61
2022/10/25 05:28:53;;;;;;;47.95;26.35;;;;;;;10.26;86.18;95586.98;1682216;84;21076;-61
2022/10/25 05:31:25;;;;;;;30.15;19.80;;;;;;;10.35;87.00;95582.02;1677003;85;21087;-61
2022/10/25 05:33:55;;;;;;;30.57;19.42;;;;;;;10.48;87.32;95583.56;1682703;84;21012;-61
2022/10/25 05:36:22;;;;;;;28.80;17.10;;;;;;;10.52;86.61;95587.00;1679568;85;21098;-61
2022/10/25 05:38:49;;;;;;;20.35;13.95;;;;;;;10.57;86.65;95593.05;1678676;85;21137;-61
2022/10/25 05:41:17;;;;;;;24.65;14.05;;;;;;;10.61;86.41;95589.02;1710145;83;21545;-62
2022/10/25 05:43:45;;;;;;;22.65;13.88;;;;;;;10.71;86.74;95602.02;1687391;84;21529;-62
2022/10/25 05:46:19;;;;;;;20.45;12.95;;;;;;;10.79;86.75;95606.27;1679013;85;21079;-62
2022/10/25 05:48:46;;;;;;;19.32;12.88;;;;;;;10.79;85.81;95612.87;1681079;85;21086;-61
2022/10/25 05:51:24;;;;;;;25.48;13.93;;;;;;;10.75;85.70;95608.53;1683700;84;21517;-62
2022/10/25 05:53:54;;;;;;;21.73;13.50;;;;;;;10.80;86.10;95618.55;1681755;85;21083;-61
2022/10/25 05:56:24;;;;;;;21.90;14.03;;;;;;;10.69;85.93;95608.66;1680668;85;21560;-61
2022/10/25 05:58:51;;;;;;;21.80;15.93;;;;;;;10.68;87.04;95620.55;1680621;85;21058;-61
2022/10/25 06:01:20;;;;;;;25.27;16.23;;;;;;;10.71;87.17;95617.42;1677685;85;21082;-61
2022/10/25 06:03:49;;;;;;;25.25;15.88;;;;;;;10.78;87.19;95618.16;1680485;84;21047;-62
2022/10/25 06:06:16;;;;;;;26.42;15.85;;;;;;;10.83;86.54;95624.22;1685644;85;21116;-61
2022/10/25 06:08:43;;;;;;;30.52;18.50;;;;;;;10.83;86.29;95613.66;1709273;83;21065;-61
2022/10/25 06:11:17;;;;;;;29.63;17.55;;;;;;;10.86;86.31;95612.73;1684131;84;21059;-61
2022/10/25 06:13:44;;;;;;;34.20;18.52;;;;;;;10.90;86.93;95623.20;1696429;83;21029;-61
2022/10/25 06:16:15;;;;;;;28.02;18.73;;;;;;;10.99;87.59;95636.70;1679917;84;21126;-62
2022/10/25 06:18:43;;;;;;;35.15;22.40;;;;;;;11.11;87.29;95641.71;1685450;85;21493;-62
2022/10/25 06:21:22;;;;;;;33.42;22.77;;;;;;;11.14;87.42;95644.77;1679577;85;21572;-61
2022/10/25 06:23:50;;;;;;;31.87;20.25;;;;;;;11.27;87.80;95642.29;1680692;84;21107;-62
2022/10/25 06:26:21;;;;;;;38.90;20.60;;;;;;;11.36;87.05;95638.58;1683740;83;21051;-61
2022/10/25 06:28:54;;;;;;;39.08;21.20;;;;;;;11.40;87.05;95645.09;1682084;84;21064;-62
2022/10/25 06:31:22;;;;;;;36.23;18.50;;;;;;;11.52;87.20;95643.97;1679044;85;21078;-61
2022/10/25 06:33:48;;;;;;;31.12;19.40;;;;;;;11.63;87.18;95647.69;1680356;85;21095;-61
2022/10/25 06:36:19;;;;;;;33.18;20.05;;;;;;;11.75;87.20;95648.75;1682301;85;21565;-62
2022/10/25 06:38:47;;;;;;;31.33;20.00;;;;;;;11.84;86.79;95652.95;1682345;85;21066;-62
2022/10/25 06:41:22;;;;;;;19.90;10.82;;;;;;;11.88;86.70;95655.98;1682251;84;21043;-62
2022/10/25 06:43:49;;;;;;;16.77;8.63;;;;;;;11.92;86.61;95660.31;1679762;85;21047;-61
2022/10/25 06:46:32;;;;;;;20.48;10.03;;;;;;;12.10;87.87;95648.43;1677477;85;20999;-61
2022/10/25 06:49:03;;;;;;;19.30;9.63;;;;;;;12.32;88.04;95654.05;1680671;84;21655;-61
2022/10/25 06:51:31;;;;;;;20.88;10.05;;;;;;;12.49;88.10;95645.70;1679155;85;21751;-61
2022/10/25 06:54:00;;;;;;;21.35;10.40;;;;;;;12.64;87.94;95645.77;1683061;84;21054;-61
2022/10/25 06:56:28;;;;;;;27.67;13.10;;;;;;;12.75;87.59;95648.56;1679388;85;21525;-61
2022/10/25 06:58:55;;;;;;;23.70;9.80;;;;;;;12.87;87.47;95645.16;1682384;84;21083;-62
2022/10/25 07:01:24;;;;;;;19.30;9.78;;;;;;;13.03;87.50;95651.80;1679619;85;21051;-62
2022/10/25 07:03:52;;;;;;;17.70;10.58;;;;;;;13.15;87.12;95646.59;1681165;85;21043;-61
2022/10/25 07:06:26;;;;;;;22.98;11.50;;;;;;;13.27;86.80;95643.64;1681696;84;21047;-62
2022/10/25 07:08:57;;;;;;;18.00;11.10;;;;;;;13.38;86.64;95646.88;1684105;84;21132;-61
2022/10/25 07:11:26;;;;;;;24.40;11.28;;;;;;;13.48;86.23;95631.58;1679481;84;21087;-62
2022/10/25 07:13:54;;;;;;;19.15;11.50;;;;;;;13.60;86.07;95635.16;1685110;85;21059;-61
2022/10/25 07:16:21;;;;;;;17.55;11.22;;;;;;;13.70;85.86;95629.59;1679042;85;21015;-61
2022/10/25 07:18:48;;;;;;;23.62;10.48;;;;;;;13.79;85.65;95628.86;1682523;85;21074;-62
2022/10/25 07:21:19;;;;;;;23.12;10.78;;;;;;;13.84;85.45;95633.56;1681083;85;21549;-61
2022/10/25 07:23:47;;;;;;;22.52;11.45;;;;;;;13.94;85.41;95638.59;1680461;85;21567;-62
2022/10/25 07:26:21;;;;;;;20.55;12.13;;;;;;;14.02;85.07;95639.22;1682675;85;21051;-61
2022/10/25 07:28:52;;;;;;;21.95;11.05;;;;;;;14.11;85.08;95635.39;1679597;85;21035;-61
2022/10/25 07:31:25;;;;;;;19.73;12.18;;;;;;;14.15;84.66;95631.27;1682496;85;21075;-61
2022/10/25 07:33:54;;;;;;;22.55;11.78;;;;;;;14.20;84.52;95633.78;1684501;85;21079;-61
2022/10/25 07:36:20;;;;;;;20.70;11.30;;;;;;;14.21;84.49;95632.86;1680096;84;21098;-62
2022/10/25 07:38:47;;;;;;;20.45;11.38;;;;;;;14.21;84.28;95634.19;1681664;84;21616;-61
2022/10/25 07:41:15;;;;;;;17.30;10.75;;;;;;;14.21;84.22;95631.53;1679075;85;21044;-62
2022/10/25 07:43:41;;;;;;;17.80;11.97;;;;;;;14.24;84.37;95633.64;1683372;84;21047;-62
2022/10/25 07:46:08;;;;;;;18.85;12.15;;;;;;;14.23;84.48;95627.91;1682725;85;21027;-61
2022/10/25 07:48:36;;;;;;;18.50;11.08;;;;;;;14.25;84.49;95634.50;1686585;85;21636;-62
2022/10/25 07:51:05;;;;;;;18.75;12.20;;;;;;;14.22;84.65;95641.25;1687936;85;21067;-62
2022/10/25 07:53:33;;;;;;;12.95;9.95;;;;;;;14.26;85.19;95644.19;1678005;83;21015;-61
2022/10/25 07:56:01;;;;;;;17.52;10.90;;;;;;;14.26;85.19;95644.19;1681838;85;21091;-62
2022/10/25 07:58:28;;;;;;;18.23;10.32;;;;;;;14.28;85.06;95651.65;1696369;83;21524;-62
2022/10/25 08:01:07;;;;;;;16.37;9.63;;;;;;;14.38;85.34;95651.76;1699289;83;21022;-61
2022/10/25 08:03:34;;;;;;;14.25;9.60;;;;;;;14.45;85.08;95644.48;1700593;84;21047;-61
2022/10/25 08:06:02;;;;;;;15.25;9.75;;;;;;;14.54;85.10;95641.56;1683770;84;21061;-61
2022/10/25 08:08:30;;;;;;;18.55;10.55;;;;;;;14.67;85.08;95638.03;1703391;84;21109;-61
2022/10/25 08:10:58;;;;;;;26.95;11.18;;;;;;;14.74;84.79;95639.56;1682654;85;21178;-61
2022/10/25 08:13:25;;;;;;;17.20;9.28;;;;;;;14.86;84.77;95632.47;1683594;84;21074;-61
2022/10/25 08:15:54;;;;;;;39.63;25.27;;;;;;;14.88;84.11;95632.43;1684623;84;21564;-61
2022/10/25 08:18:23;;;;;;;12.63;7.10;;;;;;;15.02;82.73;95632.83;1689112;84;21028;-61
2022/10/25 08:20:50;;;;;;;18.62;8.73;;;;;;;15.02;82.73;95632.83;1693941;83;21041;-61
2022/10/25 08:23:17;;;;;;;19.75;11.90;;;;;;;15.14;82.60;95628.84;1682285;84;21514;-62
2022/10/25 08:25:43;;;;;;;17.90;10.48;;;;;;;15.24;82.56;95622.73;1685688;84;21038;-61
2022/10/25 08:28:10;;;;;;;13.45;8.68;;;;;;;15.24;81.69;95618.28;1683660;84;21035;-61
2022/10/25 08:30:37;;;;;;;15.63;9.68;;;;;;;15.32;81.62;95620.22;1685667;84;21226;-61
2022/10/25 08:33:05;;;;;;;13.65;10.30;;;;;;;15.43;82.10;95618.48;1664498;85;21035;-62
2022/10/25 08:35:32;;;;;;;20.50;14.87;;;;;;;15.55;81.77;95621.16;1688848;83;21018;-61
2022/10/25 08:38:03;;;;;;;12.90;10.03;;;;;;;15.62;81.48;95622.63;1684428;84;21118;-61
2022/10/25 08:41:13;;;;;;;12.35;8.95;;;;;;;15.65;79.37;95619.88;1685378;84;21019;-62
2022/10/25 08:44:13;;;;;;;13.75;8.20;;;;;;;15.70;79.74;95610.41;1682807;84;21027;-61
2022/10/25 08:47:07;;;;;;;17.23;8.58;;;;;;;15.76;79.05;95620.36;1683328;84;21521;-61
2022/10/25 08:49:55;;;;;;;12.78;7.70;;;;;;;15.84;79.53;95622.72;1684632;84;21027;-61
2022/10/25 08:52:27;;;;;;;15.05;8.25;;;;;;;15.92;78.72;95607.78;1688558;84;21117;-61
2022/10/25 08:54:57;;;;;;;14.00;9.00;;;;;;;15.96;77.83;95612.94;1673563;84;21062;-61
2022/10/25 08:57:28;;;;;;;15.90;7.47;;;;;;;16.05;78.34;95613.48;1711681;83;21509;-61
2022/10/25 09:00:00;;;;;;;13.98;7.95;;;;;;;16.17;77.82;95622.31;1674826;84;21033;-62
2022/10/25 09:02:48;;;;;;;9.90;7.30;;;;;;;16.33;78.37;95627.88;1680636;83;21059;-61
2022/10/25 09:05:42;;;;;;;12.98;7.58;;;;;;;16.41;75.74;95633.31;1682259;85;21133;-61
2022/10/25 09:08:41;;;;;;;13.13;9.55;;;;;;;16.51;76.23;95632.95;1678859;85;21156;-62
2022/10/25 09:12:01;;;;;;;16.20;10.28;;;;;;;16.52;75.25;95640.86;1684659;84;21031;-62
2022/10/25 09:14:52;;;;;;;18.52;9.73;;;;;;;16.44;74.85;95654.48;1683619;83;21091;-61
2022/10/25 09:17:29;;;;;;;18.65;11.50;;;;;;;16.32;75.29;95663.44;1683271;83;21099;-62
2022/10/25 09:20:20;;;;;;;14.80;8.90;;;;;;;16.22;75.63;95663.80;1682627;84;21540;-62
2022/10/25 09:22:51;;;;;;;19.23;10.20;;;;;;;16.13;75.45;95677.48;1683386;84;21047;-62
2022/10/25 09:25:26;;;;;;;18.98;9.70;;;;;;;16.07;75.95;95671.52;1666455;84;21029;-62
2022/10/25 09:28:03;;;;;;;13.75;8.98;;;;;;;16.03;76.07;95675.22;1714676;83;21166;-62
2022/10/25 09:30:36;;;;;;;15.15;9.58;;;;;;;16.02;76.10;95675.69;1683290;85;21051;-61
2022/10/25 09:33:08;;;;;;;17.32;10.30;;;;;;;15.96;76.06;95684.78;1699784;84;21100;-61
2022/10/25 09:35:48;;;;;;;18.98;9.73;;;;;;;15.89;76.19;95684.61;1690308;83;21042;-61
2022/10/25 09:38:32;;;;;;;16.23;9.43;;;;;;;15.80;76.29;95687.64;1703407;84;21082;-61
2022/10/25 09:41:26;;;;;;;14.43;10.13;;;;;;;15.68;76.32;95686.26;1710184;83;21057;-61
2022/10/25 09:44:03;;;;;;;12.18;8.85;;;;;;;15.55;76.95;95695.16;1682960;85;21639;-61
2022/10/25 09:46:36;;;;;;;14.40;8.78;;;;;;;15.49;77.31;95699.81;1684597;84;21042;-61
2022/10/25 09:49:20;;;;;;;19.77;8.97;;;;;;;15.44;78.87;95699.97;1684183;84;21106;-61
2022/10/25 09:52:11;;;;;;;14.07;8.13;;;;;;;15.45;79.59;95697.74;1680987;84;21011;-61
2022/10/25 09:54:52;;;;;;;20.95;11.10;;;;;;;15.51;79.82;95701.97;1680998;85;21039;-62
2022/10/25 09:57:19;;;;;;;20.65;11.60;;;;;;;15.47;80.16;95691.91;1684530;84;21053;-61
2022/10/25 09:59:50;;;;;;;18.27;11.45;;;;;;;15.44;80.23;95684.02;1685009;84;21055;-62
2022/10/25 10:02:23;;;;;;;16.93;11.73;;;;;;;15.51;81.05;95674.04;1665213;85;21025;-62
2022/10/25 10:04:51;;;;;;;17.12;11.60;;;;;;;15.56;80.98;95683.58;1664327;84;21034;-61
2022/10/25 10:07:34;;;;;;;17.87;11.45;;;;;;;15.59;80.71;95687.45;1683291;84;21141;-62
2022/10/25 10:10:07;;;;;;;18.40;10.60;;;;;;;15.78;80.98;95689.48;1684235;84;21122;-61
2022/10/25 10:12:58;;;;;;;14.30;9.77;;;;;;;15.90;79.84;95697.00;1682902;84;21023;-61
2022/10/25 10:15:35;;;;;;;9.63;7.65;;;;;;;15.91;79.90;95694.73;1650353;83;21526;-61
2022/10/25 10:18:32;;;;;;;14.43;6.83;;;;;;;15.95;79.56;95704.35;1684914;84;21529;-61
2022/10/25 10:21:10;;;;;;;8.40;6.30;;;;;;;15.97;78.86;95701.14;1683235;84;21564;-61
2022/10/25 10:23:51;;;;;;;6.83;6.12;;;;;;;15.95;78.97;95709.67;1688730;84;21051;-61
2022/10/25 10:26:31;;;;;;;9.60;5.95;;;;;;;15.96;78.22;95700.75;1681162;84;21118;-61
2022/10/25 10:29:15;;;;;;;8.13;5.72;;;;;;;15.88;78.34;95701.52;1686906;84;21548;-62
2022/10/25 10:32:00;;;;;;;6.10;5.35;;;;;;;15.83;78.21;95706.14;1682952;84;21054;-61
2022/10/25 10:34:47;;;;;;;6.10;5.08;;;;;;;15.89;77.68;95707.69;1689988;84;21110;-61
2022/10/25 10:37:21;;;;;;;7.08;5.12;;;;;;;16.13;77.67;95705.91;1681625;84;21095;-62
2022/10/25 10:39:53;;;;;;;6.75;5.25;;;;;;;16.37;76.45;95709.39;1691465;84;21038;-61
2022/10/25 10:42:40;;;;;;;6.15;4.58;;;;;;;16.66;76.29;95703.77;1685671;84;21059;-62
2022/10/25 10:45:11;;;;;;;8.08;5.10;;;;;;;16.83;74.90;95703.55;1685729;84;21081;-62
2022/10/25 10:47:52;;;;;;;4.87;4.37;;;;;;;17.04;74.22;95697.81;1686471;85;21551;-62
2022/10/25 10:50:27;;;;;;;4.85;4.20;;;;;;;17.13;73.88;95696.07;1716633;83;21058;-61
2022/10/25 10:53:01;;;;;;;5.77;3.60;;;;;;;17.25;73.42;95695.55;1716542;83;21070;-61
2022/10/25 10:55:44;;;;;;;6.08;3.27;;;;;;;17.70;72.55;95694.45;1714640;83;21527;-61
2022/10/25 10:58:36;;;;;;;3.85;3.05;;;;;;;18.27;70.75;95695.89;1716039;83;21058;-62
2022/10/25 11:01:09;;;;;;;7.78;4.53;;;;;;;18.83;68.68;95704.81;1708803;83;21035;-61
2022/10/25 11:03:47;;;;;;;4.67;3.22;;;;;;;18.97;66.45;95711.66;1711265;83;21061;-61
2022/10/25 11:06:32;;;;;;;4.97;3.30;;;;;;;18.96;66.70;95717.95;1698188;83;21031;-61
2022/10/25 11:09:16;;;;;;;5.22;3.25;;;;;;;19.35;64.97;95717.36;1682992;84;21055;-61
2022/10/25 11:11:47;;;;;;;2.87;2.33;;;;;;;19.83;64.63;95726.03;1674076;85;21193;-62
2022/10/25 11:14:16;;;;;;;3.05;2.75;;;;;;;19.86;62.42;95716.49;1677883;85;21129;-62
2022/10/25 11:16:57;;;;;;;2.95;2.45;;;;;;;19.61;62.80;95710.67;1681987;85;21050;-62
2022/10/25 11:19:44;;;;;;;4.00;2.52;;;;;;;19.40;62.80;95720.22;1681621;84;21059;-61
2022/10/25 11:22:36;;;;;;;3.30;2.47;;;;;;;18.77;63.77;95712.67;1665144;85;21138;-62
2022/10/25 11:25:25;;;;;;;3.75;3.15;;;;;;;18.22;65.14;95717.05;1678173;85;21086;-62
2022/10/25 11:28:08;;;;;;;2.90;2.62;;;;;;;17.94;66.78;95718.33;1680880;85;21545;-62
2022/10/25 11:31:07;;;;;;;2.60;2.40;;;;;;;17.87;67.28;95723.58;1681127;85;21019;-62
2022/10/25 11:34:00;;;;;;;2.65;2.45;;;;;;;17.79;67.26;95717.22;1682876;85;21058;-62
2022/10/25 11:36:39;;;;;;;;;;;;;;;17.91;67.43;95729.15;1693627;83;21014;-61
2022/10/25 11:39:24;;;;;;;3.17;2.65;;;;;;;18.09;66.97;95735.01;1682049;84;20159;-62
2022/10/25 11:42:01;;;;;;;3.58;2.35;;;;;;;18.34;66.80;95744.09;1680476;84;21214;-62
2022/10/25 11:44:43;;;;;;;2.92;2.20;;;;;;;18.74;65.29;95733.28;1679560;85;21119;-61
2022/10/25 11:47:36;;;;;;;2.60;2.40;;;;;;;19.09;64.00;95743.62;1684137;83;21159;-62
2022/10/25 11:50:41;;;;;;;2.75;2.52;;;;;;;19.05;63.25;95742.50;1684158;85;21056;-62
2022/10/25 11:53:39;;;;;;;5.62;2.30;;;;;;;18.92;64.03;95747.11;1682410;85;21040;-62